createdAt,value
2018-07-08T00:05:48.245Z,19.80
2018-07-08T02:05:50.973Z,18.30
2018-07-08T15:51:59.939Z,28.30
2018-07-08T15:54:33.087Z,27.50
2018-07-08T15:57:31.847Z,28.00
2018-07-08T16:00:04.189Z,27.90
2018-07-08T16:02:51.848Z,28.00
2018-07-08T16:05:38.266Z,28.10
2018-07-08T16:08:14.266Z,27.70
2018-07-08T16:10:45.495Z,27.60
2018-07-08T16:13:15.290Z,27.60
2018-07-08T16:15:44.487Z,27.50
2018-07-08T16:18:15.593Z,27.50
2018-07-08T16:20:51.360Z,27.40
2018-07-08T16:26:04.091Z,27.50
2018-07-08T16:28:36.094Z,27.50
2018-07-08T16:31:09.745Z,27.40
2018-07-08T16:33:41.577Z,27.20
2018-07-08T16:36:11.388Z,27.10
2018-07-08T16:38:53.086Z,27.30
2018-07-08T16:41:33.923Z,27.30
2018-07-08T16:44:11.970Z,27.40
2018-07-08T16:47:23.171Z,27.50
2018-07-08T16:50:06.810Z,27.50
2018-07-08T16:52:39.220Z,27.60
2018-07-08T16:55:10.776Z,27.50
2018-07-08T16:57:43.326Z,27.00
2018-07-08T17:00:16.594Z,26.90
2018-07-08T17:16:50.291Z,27.00
2018-07-08T17:19:21.086Z,26.90
2018-07-08T17:21:56.147Z,27.10
2018-07-08T17:24:26.500Z,27.20
2018-07-08T17:26:57.524Z,27.20
2018-07-08T17:29:27.457Z,27.00
2018-07-08T17:32:00.187Z,26.70
2018-07-08T17:34:30.294Z,26.80
2018-07-08T17:37:03.546Z,26.70
2018-07-08T17:39:35.299Z,26.80
2018-07-08T17:42:06.378Z,27.00
2018-07-08T17:44:36.341Z,26.90
2018-07-08T17:47:07.535Z,26.80
2018-07-08T17:49:38.337Z,26.70
2018-07-08T17:52:10.150Z,26.70
2018-07-08T17:54:40.748Z,26.80
2018-07-08T17:57:22.463Z,26.80
2018-07-08T17:59:53.169Z,26.80
2018-07-08T18:02:26.793Z,26.80
2018-07-08T18:04:57.663Z,26.80
2018-07-08T18:07:39.816Z,26.80
2018-07-08T18:12:48.124Z,26.90
2018-07-08T18:15:21.561Z,26.70
2018-07-08T18:17:55.666Z,26.60
2018-07-08T18:20:30.122Z,26.60
2018-07-08T18:23:05.864Z,26.60
2018-07-08T18:25:36.755Z,26.60
2018-07-08T18:28:07.115Z,26.60
2018-07-08T18:30:38.314Z,26.40
2018-07-08T18:33:11.159Z,26.40
2018-07-08T18:35:41.736Z,26.40
2018-07-08T18:38:16.832Z,26.30
2018-07-08T18:40:54.383Z,26.30
2018-07-08T18:43:35.000Z,26.10
2018-07-08T18:46:23.784Z,26.30
2018-07-08T18:48:54.859Z,26.30
2018-07-08T18:51:25.308Z,26.40
2018-07-08T18:53:56.633Z,26.30
2018-07-08T18:56:26.454Z,26.10
2018-07-08T18:59:05.917Z,26.00
2018-07-08T19:01:36.400Z,25.90
2018-07-08T19:04:11.375Z,25.90
2018-07-08T19:06:42.100Z,26.00
2018-07-08T19:09:12.198Z,26.00
2018-07-08T19:11:43.382Z,26.00
2018-07-08T19:14:15.328Z,26.00
2018-07-08T19:16:45.549Z,25.80
2018-07-08T19:19:16.515Z,25.70
2018-07-08T19:21:46.730Z,25.70
2018-07-08T19:24:27.129Z,25.60
2018-07-08T19:27:00.606Z,25.60
2018-07-08T19:29:31.504Z,25.70
2018-07-08T19:32:00.652Z,25.70
2018-07-08T19:34:40.842Z,25.70
2018-07-08T19:37:30.904Z,25.70
2018-07-08T19:42:57.817Z,25.50
2018-07-08T19:45:31.057Z,25.50
2018-07-08T19:48:00.285Z,25.50
2018-07-08T19:50:30.512Z,25.50
2018-07-08T19:53:00.277Z,25.50
2018-07-08T19:55:30.202Z,25.40
2018-07-08T19:58:07.487Z,25.30
2018-07-08T20:00:38.573Z,25.10
2018-07-08T20:03:08.391Z,25.10
2018-07-08T20:05:38.025Z,25.10
2018-07-08T20:08:09.183Z,25.20
2018-07-08T20:10:38.529Z,25.10
2018-07-08T20:13:09.024Z,25.00
2018-07-08T20:18:09.775Z,25.10
2018-07-08T20:20:39.548Z,25.10
2018-07-08T20:23:11.101Z,24.90
2018-07-08T20:25:43.106Z,24.90
2018-07-08T20:28:12.454Z,24.80
2018-07-08T20:30:43.525Z,24.90
2018-07-08T20:35:43.364Z,24.90
2018-07-08T20:38:49.687Z,24.90
2018-07-08T20:43:56.015Z,24.90
2018-07-08T20:49:38.327Z,24.80
2018-07-08T20:55:13.601Z,24.60
2018-07-08T20:57:47.679Z,24.60
2018-07-08T21:00:17.188Z,24.40
2018-07-08T21:02:47.065Z,24.40
2018-07-08T21:05:18.932Z,24.40
2018-07-08T21:07:59.001Z,24.20
2018-07-08T21:10:34.609Z,24.30
2018-07-08T21:13:07.250Z,24.30
2018-07-08T21:15:39.042Z,24.20
2018-07-08T21:18:10.615Z,24.10
2018-07-08T21:20:40.660Z,24.20
2018-07-08T21:23:11.341Z,24.10
2018-07-08T21:25:41.729Z,24.10
2018-07-08T21:28:14.766Z,24.10
2018-07-08T21:30:44.314Z,24.00
2018-07-08T21:33:14.763Z,23.90
2018-07-08T21:35:44.249Z,23.80
2018-07-08T21:38:14.265Z,23.60
2018-07-08T21:40:53.392Z,23.50
2018-07-08T21:43:35.347Z,23.40
2018-07-08T21:50:41.236Z,23.30
2018-07-08T21:53:11.454Z,23.10
2018-07-08T21:55:42.053Z,23.10
2018-07-08T21:58:11.188Z,23.00
2018-07-08T22:01:23.103Z,23.00
2018-07-08T22:03:53.088Z,22.90
2018-07-08T22:06:22.684Z,22.60
2018-07-08T22:11:22.204Z,22.30
2018-07-08T22:13:52.096Z,22.10
2018-07-08T22:16:22.440Z,22.20
2018-07-08T22:18:55.192Z,22.10
2018-07-08T22:21:32.705Z,22.10
2018-07-08T22:24:13.384Z,22.10
2018-07-08T22:26:44.748Z,22.10
2018-07-08T22:29:15.386Z,22.00
2018-07-08T22:31:46.205Z,21.90
2018-07-08T22:41:48.435Z,21.70
2018-07-08T22:44:18.394Z,21.70
2018-07-08T22:49:18.784Z,21.60
2018-07-08T22:51:47.747Z,21.50
2018-07-08T22:56:48.588Z,21.40
2018-07-08T22:59:19.162Z,21.40
2018-07-08T23:02:00.099Z,21.30
2018-07-08T23:04:29.333Z,21.30
2018-07-08T23:07:03.103Z,21.20
2018-07-08T23:09:32.505Z,21.20
2018-07-08T23:12:04.180Z,21.20
2018-07-08T23:14:35.812Z,21.10
2018-07-08T23:17:05.242Z,21.10
2018-07-08T23:19:37.208Z,21.10
2018-07-08T23:24:35.795Z,21.10
2018-07-08T23:27:04.962Z,21.10
2018-07-08T23:32:03.185Z,21.10
2018-07-08T23:34:33.284Z,21.10
2018-07-08T23:37:05.381Z,21.10
2018-07-08T23:42:11.693Z,21.00
2018-07-08T23:44:42.513Z,20.90
2018-07-08T23:49:41.311Z,20.70
2018-07-08T23:52:11.274Z,20.70
2018-07-08T23:54:40.416Z,20.70
2018-07-08T23:59:39.455Z,20.60
